Terminal Aerodrome Forecast
Issued by NWS Corpus Christi, TX

Home | Current Version | Previous Version | Text Only | Print | Product List | Glossary On
Versions: 1 2 3 4 5 6 7 8 9 10 11 12 13 14 15 16
000
FTUS44 KCRP 271900 AAA
TAFVCT
TAF AMD
KVCT 271901Z 2719/2818 36015G22KT P6SM VCSH OVC012
      TEMPO 2719/2721 5SM -RA BR BKN008
     FM272100 36015G22KT P6SM OVC012
     FM280600 36014G20KT 6SM RA OVC012
     FM281600 35011KT P6SM OVC015=

USA.gov is the U.S. government's official web portal to all federal, state and local government web resources and services.